Valentine — GB042Q — position and weather

sailwx.info

Track history (hours):
 
Tides and Currents Weather Stations Pressure Air Temp Water Temp Dewpoint Dewpoint Depression Visibility Wind Speed Wind Dir Waves Ship Positions

Valentine

Last reported at 2018-Jun-10 07:39 UTC. Time now 2018-Jun-21 17:37 UTC.
Position S 27°52' E 153°22'.
Warning: this ship's position is 11 days out of date.

Length 13 m.

Type: Pleasure craft. MMSI: 503036810.

Date/timePositionNaut miles runAvg speedWind from/ knotsBaromVisibWave heightAir tempDewpointWater temp
2018-Jun-10 07:39S 27°52' E 153°22'0 0.0
2018-Jun-10 06:12S 27°52' E 153°22'0 0.0
2018-Jun-10 06:00S 27°52' E 153°22'0 0.0
2018-Jun-09 04:32S 27°52' E 153°23'0 3.3
2018-Jun-09 04:30S 27°52' E 153°23'3 5.2
2018-Jun-09 04:00S 27°50' E 153°24'4 8.5
2018-Jun-09 03:30S 27°46' E 153°26'1 1.1
2018-Jun-09 03:00S 27°45' E 153°26'0 0.0
2018-Jun-09 02:30S 27°45' E 153°26'1 2.7
2018-Jun-09 02:00S 27°46' E 153°25'4 7.5
2018-Jun-09 01:30S 27°50' E 153°24'3 4.9
2018-Jun-09 00:59S 27°53' E 153°24'1 2.3
2018-Jun-09 00:29S 27°52' E 153°22'0 0.0
2018-Jun-08 23:59S 27°52' E 153°22'  
2018-Jun-02 08:38S 27°52' E 153°22'0 0.0
2018-Jun-02 08:29S 27°52' E 153°22'0 0.0
2018-Jun-02 07:59S 27°52' E 153°22'0 0.0
2018-Jun-02 07:29S 27°52' E 153°22'0 0.0
2018-Jun-02 06:59S 27°52' E 153°22'0 0.0
2018-Jun-02 06:29S 27°52' E 153°22'0 0.0
2018-Jun-02 05:59S 27°52' E 153°22'0 0.0
2018-Jun-02 05:29S 27°52' E 153°22'0 0.0
2018-Jun-02 04:59S 27°52' E 153°22'0 0.0
2018-Jun-02 04:29S 27°52' E 153°22'0 0.0
2018-Jun-02 03:59S 27°52' E 153°22'  
Track history (hours):
 
Tides and Currents Weather Stations Pressure Air Temp Water Temp Dewpoint Dewpoint Depression Visibility Wind Speed Wind Dir Waves Ship Positions

Valentine

Last reported at 2018-Jun-10 07:39 UTC. Time now 2018-Jun-21 17:37 UTC.
Position S 27°52' E 153°22'.
Warning: this ship's position is 11 days out of date.

Length 13 m.

Type: Pleasure craft. MMSI: 503036810.

Date/timePositionNaut miles runAvg speedWind from/ knotsBaromVisibWave heightAir tempDewpointWater temp
2018-Jun-10 07:39S 27°52' E 153°22'0 0.0
2018-Jun-10 06:12S 27°52' E 153°22'0 0.0
2018-Jun-10 06:00S 27°52' E 153°22'0 0.0
2018-Jun-09 04:32S 27°52' E 153°23'0 3.3
2018-Jun-09 04:30S 27°52' E 153°23'3 5.2
2018-Jun-09 04:00S 27°50' E 153°24'4 8.5
2018-Jun-09 03:30S 27°46' E 153°26'1 1.1
2018-Jun-09 03:00S 27°45' E 153°26'0 0.0
2018-Jun-09 02:30S 27°45' E 153°26'1 2.7
2018-Jun-09 02:00S 27°46' E 153°25'4 7.5
2018-Jun-09 01:30S 27°50' E 153°24'3 4.9
2018-Jun-09 00:59S 27°53' E 153°24'1 2.3
2018-Jun-09 00:29S 27°52' E 153°22'0 0.0
2018-Jun-08 23:59S 27°52' E 153°22'  
2018-Jun-02 08:38S 27°52' E 153°22'0 0.0
2018-Jun-02 08:29S 27°52' E 153°22'0 0.0
2018-Jun-02 07:59S 27°52' E 153°22'0 0.0
2018-Jun-02 07:29S 27°52' E 153°22'0 0.0
2018-Jun-02 06:59S 27°52' E 153°22'0 0.0
2018-Jun-02 06:29S 27°52' E 153°22'0 0.0
2018-Jun-02 05:59S 27°52' E 153°22'0 0.0
2018-Jun-02 05:29S 27°52' E 153°22'0 0.0
2018-Jun-02 04:59S 27°52' E 153°22'0 0.0
2018-Jun-02 04:29S 27°52' E 153°22'0 0.0
2018-Jun-02 03:59S 27°52' E 153°22'  

Dump ship's entire track history